sensor_id;sensor_type;location;lat;lon;timestamp;P1;durP1;ratioP1;P2;durP2;ratioP2
5295;SDS011;2670;42.720;23.336;2023-04-01T00:01:23;31.43;;;14.73;;
5295;SDS011;2670;42.720;23.336;2023-04-01T00:03:51;34.30;;;16.10;;
5295;SDS011;2670;42.720;23.336;2023-04-01T00:06:19;25.40;;;12.97;;
5295;SDS011;2670;42.720;23.336;2023-04-01T00:08:47;26.77;;;14.50;;
5295;SDS011;2670;42.720;23.336;2023-04-01T00:11:13;27.87;;;13.70;;
5295;SDS011;2670;42.720;23.336;2023-04-01T00:13:41;32.80;;;13.67;;
5295;SDS011;2670;42.720;23.336;2023-04-01T00:16:08;31.57;;;12.70;;
5295;SDS011;2670;42.720;23.336;2023-04-01T00:18:35;28.50;;;13.90;;
5295;SDS011;2670;42.720;23.336;2023-04-01T00:21:02;34.27;;;15.00;;
5295;SDS011;2670;42.720;23.336;2023-04-01T00:23:29;28.67;;;14.37;;
5295;SDS011;2670;42.720;23.336;2023-04-01T00:25:58;31.03;;;13.10;;
5295;SDS011;2670;42.720;23.336;2023-04-01T00:28:26;25.13;;;12.43;;
5295;SDS011;2670;42.720;23.336;2023-04-01T00:30:53;40.47;;;15.13;;
5295;SDS011;2670;42.720;23.336;2023-04-01T00:33:19;25.57;;;12.93;;
5295;SDS011;2670;42.720;23.336;2023-04-01T00:35:46;26.03;;;13.73;;
5295;SDS011;2670;42.720;23.336;2023-04-01T00:38:13;33.23;;;12.87;;
5295;SDS011;2670;42.720;23.336;2023-04-01T00:40:42;23.90;;;11.90;;
5295;SDS011;2670;42.720;23.336;2023-04-01T00:43:12;31.70;;;13.40;;
5295;SDS011;2670;42.720;23.336;2023-04-01T00:45:43;21.13;;;11.97;;
5295;SDS011;2670;42.720;23.336;2023-04-01T00:48:11;24.50;;;12.70;;
5295;SDS011;2670;42.720;23.336;2023-04-01T00:50:41;35.53;;;14.93;;
5295;SDS011;2670;42.720;23.336;2023-04-01T00:53:12;23.53;;;12.47;;
5295;SDS011;2670;42.720;23.336;2023-04-01T00:55:41;30.50;;;12.40;;
5295;SDS011;2670;42.720;23.336;2023-04-01T00:58:15;25.03;;;12.33;;
5295;SDS011;2670;42.720;23.336;2023-04-01T01:00:45;21.40;;;11.53;;
5295;SDS011;2670;42.720;23.336;2023-04-01T01:03:15;28.17;;;11.33;;
5295;SDS011;2670;42.720;23.336;2023-04-01T01:05:53;24.00;;;10.63;;
5295;SDS011;2670;42.720;23.336;2023-04-01T01:08:31;22.43;;;10.20;;
5295;SDS011;2670;42.720;23.336;2023-04-01T01:11:10;18.63;;;10.07;;
5295;SDS011;2670;42.720;23.336;2023-04-01T01:13:42;19.37;;;9.57;;
5295;SDS011;2670;42.720;23.336;2023-04-01T01:16:17;16.23;;;10.10;;
5295;SDS011;2670;42.720;23.336;2023-04-01T01:18:53;27.23;;;10.30;;
5295;SDS011;2670;42.720;23.336;2023-04-01T01:21:30;24.73;;;10.70;;
5295;SDS011;2670;42.720;23.336;2023-04-01T01:24:13;16.87;;;9.30;;
5295;SDS011;2670;42.720;23.336;2023-04-01T01:26:58;19.80;;;9.50;;
5295;SDS011;2670;42.720;23.336;2023-04-01T01:35:47;19.27;;;9.40;;
5295;SDS011;2670;42.720;23.336;2023-04-01T01:38:16;24.73;;;9.87;;
5295;SDS011;2670;42.720;23.336;2023-04-01T01:40:46;16.33;;;9.23;;
5295;SDS011;2670;42.720;23.336;2023-04-01T01:43:19;27.07;;;9.43;;
5295;SDS011;2670;42.720;23.336;2023-04-01T01:45:50;16.57;;;9.07;;
5295;SDS011;2670;42.720;23.336;2023-04-01T01:48:20;15.67;;;8.80;;
5295;SDS011;2670;42.720;23.336;2023-04-01T01:50:49;17.50;;;9.13;;
5295;SDS011;2670;42.720;23.336;2023-04-01T01:53:17;15.03;;;9.13;;
5295;SDS011;2670;42.720;23.336;2023-04-01T01:55:44;18.90;;;8.80;;
5295;SDS011;2670;42.720;23.336;2023-04-01T01:58:13;27.33;;;11.37;;
5295;SDS011;2670;42.720;23.336;2023-04-01T02:00:44;22.93;;;11.10;;
5295;SDS011;2670;42.720;23.336;2023-04-01T02:03:16;22.53;;;11.33;;
5295;SDS011;2670;42.720;23.336;2023-04-01T02:05:45;20.27;;;10.53;;
5295;SDS011;2670;42.720;23.336;2023-04-01T02:08:15;28.80;;;12.07;;
5295;SDS011;2670;42.720;23.336;2023-04-01T02:10:48;24.97;;;10.97;;
5295;SDS011;2670;42.720;23.336;2023-04-01T02:13:21;19.10;;;11.63;;
5295;SDS011;2670;42.720;23.336;2023-04-01T02:15:53;27.60;;;11.20;;
5295;SDS011;2670;42.720;23.336;2023-04-01T02:18:25;23.27;;;11.70;;
5295;SDS011;2670;42.720;23.336;2023-04-01T02:20:52;24.00;;;11.60;;
5295;SDS011;2670;42.720;23.336;2023-04-01T02:23:21;26.63;;;12.00;;
5295;SDS011;2670;42.720;23.336;2023-04-01T02:25:49;37.60;;;13.00;;
5295;SDS011;2670;42.720;23.336;2023-04-01T02:28:16;28.73;;;13.10;;
5295;SDS011;2670;42.720;23.336;2023-04-01T02:30:45;23.90;;;11.90;;
5295;SDS011;2670;42.720;23.336;2023-04-01T02:33:16;22.87;;;12.67;;
5295;SDS011;2670;42.720;23.336;2023-04-01T02:35:43;28.13;;;13.03;;
5295;SDS011;2670;42.720;23.336;2023-04-01T02:38:10;34.13;;;15.73;;
5295;SDS011;2670;42.720;23.336;2023-04-01T02:40:45;21.87;;;11.93;;
5295;SDS011;2670;42.720;23.336;2023-04-01T02:43:14;19.93;;;11.13;;
5295;SDS011;2670;42.720;23.336;2023-04-01T02:45:41;28.50;;;11.97;;
5295;SDS011;2670;42.720;23.336;2023-04-01T02:48:08;21.10;;;11.30;;
5295;SDS011;2670;42.720;23.336;2023-04-01T02:50:35;26.90;;;11.30;;
5295;SDS011;2670;42.720;23.336;2023-04-01T02:53:02;24.10;;;11.27;;
5295;SDS011;2670;42.720;23.336;2023-04-01T02:55:31;25.47;;;11.90;;
5295;SDS011;2670;42.720;23.336;2023-04-01T02:57:59;25.00;;;13.10;;
5295;SDS011;2670;42.720;23.336;2023-04-01T03:00:26;34.20;;;14.30;;
5295;SDS011;2670;42.720;23.336;2023-04-01T03:02:53;23.13;;;9.70;;
5295;SDS011;2670;42.720;23.336;2023-04-01T03:05:20;16.10;;;8.57;;
5295;SDS011;2670;42.720;23.336;2023-04-01T03:07:47;16.57;;;9.03;;
5295;SDS011;2670;42.720;23.336;2023-04-01T03:10:14;14.40;;;8.30;;
5295;SDS011;2670;42.720;23.336;2023-04-01T03:12:41;15.00;;;8.00;;
5295;SDS011;2670;42.720;23.336;2023-04-01T03:15:10;12.63;;;7.07;;
5295;SDS011;2670;42.720;23.336;2023-04-01T03:17:38;17.47;;;7.83;;
5295;SDS011;2670;42.720;23.336;2023-04-01T03:20:06;17.10;;;7.50;;
5295;SDS011;2670;42.720;23.336;2023-04-01T03:22:33;13.63;;;7.83;;
5295;SDS011;2670;42.720;23.336;2023-04-01T03:25:00;15.17;;;7.83;;
5295;SDS011;2670;42.720;23.336;2023-04-01T03:27:27;22.30;;;9.10;;
5295;SDS011;2670;42.720;23.336;2023-04-01T03:29:54;15.70;;;6.90;;
5295;SDS011;2670;42.720;23.336;2023-04-01T03:32:22;25.00;;;8.07;;
5295;SDS011;2670;42.720;23.336;2023-04-01T03:34:48;16.13;;;8.10;;
5295;SDS011;2670;42.720;23.336;2023-04-01T03:37:15;19.90;;;9.17;;
5295;SDS011;2670;42.720;23.336;2023-04-01T03:39:42;22.87;;;8.97;;
5295;SDS011;2670;42.720;23.336;2023-04-01T03:42:08;17.70;;;9.00;;
5295;SDS011;2670;42.720;23.336;2023-04-01T03:44:35;15.90;;;9.10;;
5295;SDS011;2670;42.720;23.336;2023-04-01T03:47:02;16.70;;;10.13;;
5295;SDS011;2670;42.720;23.336;2023-04-01T03:49:30;21.63;;;9.50;;
5295;SDS011;2670;42.720;23.336;2023-04-01T03:51:57;12.97;;;8.53;;
5295;SDS011;2670;42.720;23.336;2023-04-01T03:54:24;16.87;;;8.90;;
5295;SDS011;2670;42.720;23.336;2023-04-01T03:56:51;25.83;;;9.17;;
5295;SDS011;2670;42.720;23.336;2023-04-01T03:59:18;16.27;;;8.67;;
5295;SDS011;2670;42.720;23.336;2023-04-01T04:01:46;14.63;;;9.77;;
5295;SDS011;2670;42.720;23.336;2023-04-01T04:04:12;21.10;;;10.70;;
5295;SDS011;2670;42.720;23.336;2023-04-01T04:06:42;20.83;;;8.80;;
5295;SDS011;2670;42.720;23.336;2023-04-01T04:09:09;20.83;;;10.50;;
5295;SDS011;2670;42.720;23.336;2023-04-01T04:11:35;19.93;;;9.80;;
5295;SDS011;2670;42.720;23.336;2023-04-01T04:14:02;21.90;;;10.53;;
5295;SDS011;2670;42.720;23.336;2023-04-01T04:16:29;16.70;;;9.60;;
5295;SDS011;2670;42.720;23.336;2023-04-01T04:18:56;17.70;;;10.07;;
5295;SDS011;2670;42.720;23.336;2023-04-01T04:21:22;21.97;;;9.60;;
5295;SDS011;2670;42.720;23.336;2023-04-01T04:23:51;18.97;;;10.63;;
5295;SDS011;2670;42.720;23.336;2023-04-01T04:26:17;16.87;;;9.10;;
5295;SDS011;2670;42.720;23.336;2023-04-01T04:28:44;17.53;;;8.37;;
5295;SDS011;2670;42.720;23.336;2023-04-01T04:31:11;14.00;;;9.00;;
5295;SDS011;2670;42.720;23.336;2023-04-01T04:33:38;21.17;;;8.20;;
5295;SDS011;2670;42.720;23.336;2023-04-01T04:36:05;16.60;;;9.13;;
5295;SDS011;2670;42.720;23.336;2023-04-01T04:38:32;16.53;;;8.80;;
5295;SDS011;2670;42.720;23.336;2023-04-01T04:41:00;21.20;;;9.13;;
5295;SDS011;2670;42.720;23.336;2023-04-01T04:43:27;18.40;;;8.90;;
5295;SDS011;2670;42.720;23.336;2023-04-01T04:45:53;23.87;;;10.63;;
5295;SDS011;2670;42.720;23.336;2023-04-01T04:48:20;22.77;;;10.80;;
5295;SDS011;2670;42.720;23.336;2023-04-01T04:50:47;16.43;;;8.70;;
5295;SDS011;2670;42.720;23.336;2023-04-01T04:53:15;14.20;;;8.17;;
5295;SDS011;2670;42.720;23.336;2023-04-01T04:55:43;14.17;;;7.77;;
5295;SDS011;2670;42.720;23.336;2023-04-01T04:58:12;21.03;;;7.97;;
5295;SDS011;2670;42.720;23.336;2023-04-01T05:00:39;15.87;;;7.67;;
5295;SDS011;2670;42.720;23.336;2023-04-01T05:03:06;20.90;;;10.50;;
5295;SDS011;2670;42.720;23.336;2023-04-01T05:05:32;33.33;;;10.20;;
5295;SDS011;2670;42.720;23.336;2023-04-01T05:07:59;23.50;;;9.50;;
5295;SDS011;2670;42.720;23.336;2023-04-01T05:10:26;26.80;;;10.57;;
5295;SDS011;2670;42.720;23.336;2023-04-01T05:12:53;20.37;;;9.70;;
5295;SDS011;2670;42.720;23.336;2023-04-01T05:15:21;46.03;;;18.00;;
5295;SDS011;2670;42.720;23.336;2023-04-01T05:17:47;46.07;;;18.90;;
5295;SDS011;2670;42.720;23.336;2023-04-01T05:20:14;25.57;;;12.83;;
5295;SDS011;2670;42.720;23.336;2023-04-01T05:22:41;21.37;;;9.47;;
5295;SDS011;2670;42.720;23.336;2023-04-01T05:25:08;22.17;;;8.83;;
5295;SDS011;2670;42.720;23.336;2023-04-01T05:27:35;18.20;;;9.17;;
5295;SDS011;2670;42.720;23.336;2023-04-01T05:30:02;14.23;;;7.30;;
5295;SDS011;2670;42.720;23.336;2023-04-01T05:32:31;16.77;;;9.10;;
5295;SDS011;2670;42.720;23.336;2023-04-01T05:34:58;19.37;;;8.20;;
5295;SDS011;2670;42.720;23.336;2023-04-01T05:37:25;24.30;;;8.50;;
5295;SDS011;2670;42.720;23.336;2023-04-01T05:39:51;19.63;;;9.50;;
5295;SDS011;2670;42.720;23.336;2023-04-01T05:42:18;17.50;;;10.00;;
5295;SDS011;2670;42.720;23.336;2023-04-01T05:44:45;17.07;;;9.37;;
5295;SDS011;2670;42.720;23.336;2023-04-01T05:47:12;20.07;;;8.57;;
5295;SDS011;2670;42.720;23.336;2023-04-01T05:49:40;20.97;;;9.30;;
5295;SDS011;2670;42.720;23.336;2023-04-01T05:52:06;23.70;;;8.83;;
5295;SDS011;2670;42.720;23.336;2023-04-01T05:54:33;21.80;;;9.10;;
5295;SDS011;2670;42.720;23.336;2023-04-01T05:57:00;22.07;;;10.17;;
5295;SDS011;2670;42.720;23.336;2023-04-01T05:59:27;26.13;;;10.77;;
5295;SDS011;2670;42.720;23.336;2023-04-01T06:01:56;23.87;;;10.93;;
5295;SDS011;2670;42.720;23.336;2023-04-01T06:04:23;12.53;;;7.97;;
5295;SDS011;2670;42.720;23.336;2023-04-01T06:06:51;15.23;;;8.43;;
5295;SDS011;2670;42.720;23.336;2023-04-01T06:09:19;17.60;;;8.20;;
5295;SDS011;2670;42.720;23.336;2023-04-01T06:12:07;25.70;;;10.30;;
5295;SDS011;2670;42.720;23.336;2023-04-01T06:14:47;28.47;;;12.50;;
5295;SDS011;2670;42.720;23.336;2023-04-01T06:17:26;17.83;;;10.03;;
5295;SDS011;2670;42.720;23.336;2023-04-01T06:20:06;20.83;;;8.67;;
5295;SDS011;2670;42.720;23.336;2023-04-01T06:22:46;15.03;;;6.90;;
5295;SDS011;2670;42.720;23.336;2023-04-01T06:25:27;16.67;;;6.47;;
5295;SDS011;2670;42.720;23.336;2023-04-01T06:31:03;9.87;;;5.63;;
5295;SDS011;2670;42.720;23.336;2023-04-01T06:33:43;22.00;;;6.20;;
5295;SDS011;2670;42.720;23.336;2023-04-01T06:36:25;12.33;;;5.37;;
5295;SDS011;2670;42.720;23.336;2023-04-01T06:39:10;10.50;;;4.90;;
5295;SDS011;2670;42.720;23.336;2023-04-01T06:41:55;18.43;;;5.30;;
5295;SDS011;2670;42.720;23.336;2023-04-01T06:44:40;12.10;;;4.97;;
5295;SDS011;2670;42.720;23.336;2023-04-01T06:47:21;8.57;;;4.97;;
5295;SDS011;2670;42.720;23.336;2023-04-01T06:49:58;11.57;;;5.13;;
5295;SDS011;2670;42.720;23.336;2023-04-01T06:52:31;7.57;;;4.43;;
5295;SDS011;2670;42.720;23.336;2023-04-01T06:55:15;8.60;;;4.70;;
5295;SDS011;2670;42.720;23.336;2023-04-01T06:57:50;17.23;;;4.97;;
5295;SDS011;2670;42.720;23.336;2023-04-01T07:00:22;7.63;;;5.10;;
5295;SDS011;2670;42.720;23.336;2023-04-01T07:02:56;12.33;;;5.53;;
5295;SDS011;2670;42.720;23.336;2023-04-01T07:05:31;10.10;;;4.93;;
5295;SDS011;2670;42.720;23.336;2023-04-01T07:08:01;9.70;;;5.57;;
5295;SDS011;2670;42.720;23.336;2023-04-01T07:10:32;14.17;;;5.80;;
5295;SDS011;2670;42.720;23.336;2023-04-01T07:13:10;14.00;;;5.60;;
5295;SDS011;2670;42.720;23.336;2023-04-01T07:15:42;15.33;;;6.00;;
5295;SDS011;2670;42.720;23.336;2023-04-01T07:18:23;12.90;;;6.30;;
5295;SDS011;2670;42.720;23.336;2023-04-01T07:20:59;15.57;;;5.93;;
5295;SDS011;2670;42.720;23.336;2023-04-01T07:23:28;8.53;;;5.30;;
5295;SDS011;2670;42.720;23.336;2023-04-01T07:26:04;12.83;;;6.37;;
5295;SDS011;2670;42.720;23.336;2023-04-01T07:28:39;15.33;;;5.33;;
5295;SDS011;2670;42.720;23.336;2023-04-01T07:31:08;12.37;;;6.57;;
5295;SDS011;2670;42.720;23.336;2023-04-01T07:33:46;9.97;;;6.23;;
5295;SDS011;2670;42.720;23.336;2023-04-01T07:36:22;13.17;;;4.47;;
5295;SDS011;2670;42.720;23.336;2023-04-01T07:38:56;15.33;;;5.00;;
5295;SDS011;2670;42.720;23.336;2023-04-01T07:41:30;13.17;;;5.83;;
5295;SDS011;2670;42.720;23.336;2023-04-01T07:44:06;19.00;;;5.57;;
5295;SDS011;2670;42.720;23.336;2023-04-01T07:46:51;17.90;;;5.70;;
5295;SDS011;2670;42.720;23.336;2023-04-01T07:49:27;7.93;;;4.63;;
5295;SDS011;2670;42.720;23.336;2023-04-01T07:52:01;9.50;;;5.63;;
5295;SDS011;2670;42.720;23.336;2023-04-01T07:54:35;18.20;;;7.50;;
5295;SDS011;2670;42.720;23.336;2023-04-01T07:57:09;12.73;;;5.07;;
5295;SDS011;2670;42.720;23.336;2023-04-01T07:59:43;14.90;;;5.50;;
5295;SDS011;2670;42.720;23.336;2023-04-01T08:02:21;10.20;;;4.40;;
5295;SDS011;2670;42.720;23.336;2023-04-01T08:05:00;10.13;;;4.03;;
5295;SDS011;2670;42.720;23.336;2023-04-01T08:07:40;10.10;;;3.70;;
5295;SDS011;2670;42.720;23.336;2023-04-01T08:10:13;5.23;;;3.53;;
5295;SDS011;2670;42.720;23.336;2023-04-01T08:12:51;8.37;;;3.87;;
5295;SDS011;2670;42.720;23.336;2023-04-01T08:15:27;8.57;;;4.73;;
5295;SDS011;2670;42.720;23.336;2023-04-01T08:17:59;8.00;;;3.83;;
5295;SDS011;2670;42.720;23.336;2023-04-01T08:20:36;9.27;;;4.07;;
5295;SDS011;2670;42.720;23.336;2023-04-01T08:23:11;9.63;;;4.33;;
5295;SDS011;2670;42.720;23.336;2023-04-01T08:25:40;19.53;;;4.30;;
5295;SDS011;2670;42.720;23.336;2023-04-01T08:28:15;8.67;;;4.37;;
5295;SDS011;2670;42.720;23.336;2023-04-01T08:30:47;15.67;;;4.30;;
5295;SDS011;2670;42.720;23.336;2023-04-01T08:33:19;10.50;;;4.60;;
5295;SDS011;2670;42.720;23.336;2023-04-01T08:35:52;13.13;;;4.40;;
5295;SDS011;2670;42.720;23.336;2023-04-01T08:38:26;10.10;;;4.57;;
5295;SDS011;2670;42.720;23.336;2023-04-01T08:40:58;8.30;;;4.40;;
5295;SDS011;2670;42.720;23.336;2023-04-01T08:43:38;10.20;;;4.40;;
5295;SDS011;2670;42.720;23.336;2023-04-01T08:46:19;6.37;;;3.90;;
5295;SDS011;2670;42.720;23.336;2023-04-01T08:49:10;7.27;;;3.17;;
5295;SDS011;2670;42.720;23.336;2023-04-01T08:55:09;6.60;;;3.73;;
5295;SDS011;2670;42.720;23.336;2023-04-01T08:57:55;5.20;;;3.20;;
5295;SDS011;2670;42.720;23.336;2023-04-01T09:00:33;14.03;;;3.87;;
5295;SDS011;2670;42.720;23.336;2023-04-01T09:03:14;7.23;;;3.63;;
5295;SDS011;2670;42.720;23.336;2023-04-01T09:15:27;6.30;;;3.23;;
5295;SDS011;2670;42.720;23.336;2023-04-01T09:18:13;6.70;;;2.90;;
5295;SDS011;2670;42.720;23.336;2023-04-01T09:20:53;11.30;;;2.90;;
5295;SDS011;2670;42.720;23.336;2023-04-01T09:23:53;11.10;;;4.00;;
5295;SDS011;2670;42.720;23.336;2023-04-01T09:29:44;5.67;;;3.40;;
5295;SDS011;2670;42.720;23.336;2023-04-01T09:32:40;6.73;;;3.43;;
5295;SDS011;2670;42.720;23.336;2023-04-01T09:35:20;9.73;;;3.40;;
5295;SDS011;2670;42.720;23.336;2023-04-01T09:37:52;9.40;;;3.63;;
5295;SDS011;2670;42.720;23.336;2023-04-01T09:40:31;6.30;;;2.70;;
5295;SDS011;2670;42.720;23.336;2023-04-01T09:43:16;10.67;;;3.87;;
5295;SDS011;2670;42.720;23.336;2023-04-01T09:46:15;17.83;;;4.27;;
5295;SDS011;2670;42.720;23.336;2023-04-01T09:51:55;8.13;;;3.27;;
5295;SDS011;2670;42.720;23.336;2023-04-01T09:54:36;6.80;;;3.47;;
5295;SDS011;2670;42.720;23.336;2023-04-01T10:00:28;11.90;;;3.60;;
5295;SDS011;2670;42.720;23.336;2023-04-01T10:03:17;3.73;;;2.53;;
5295;SDS011;2670;42.720;23.336;2023-04-01T10:24:57;6.50;;;3.00;;
5295;SDS011;2670;42.720;23.336;2023-04-01T10:27:34;9.13;;;3.80;;
5295;SDS011;2670;42.720;23.336;2023-04-01T10:33:37;13.77;;;4.23;;
5295;SDS011;2670;42.720;23.336;2023-04-01T10:36:29;9.77;;;3.30;;
5295;SDS011;2670;42.720;23.336;2023-04-01T10:42:21;3.70;;;2.70;;
5295;SDS011;2670;42.720;23.336;2023-04-01T10:48:21;8.83;;;3.87;;
5295;SDS011;2670;42.720;23.336;2023-04-01T10:51:01;11.77;;;3.00;;
5295;SDS011;2670;42.720;23.336;2023-04-01T10:53:38;7.90;;;3.20;;
5295;SDS011;2670;42.720;23.336;2023-04-01T10:56:34;13.07;;;3.73;;
5295;SDS011;2670;42.720;23.336;2023-04-01T11:02:39;7.33;;;3.80;;
5295;SDS011;2670;42.720;23.336;2023-04-01T11:05:31;6.47;;;3.50;;
5295;SDS011;2670;42.720;23.336;2023-04-01T11:08:38;6.30;;;3.40;;
5295;SDS011;2670;42.720;23.336;2023-04-01T11:11:40;16.13;;;3.40;;
5295;SDS011;2670;42.720;23.336;2023-04-01T11:20:45;15.87;;;4.43;;
5295;SDS011;2670;42.720;23.336;2023-04-01T11:23:29;5.30;;;3.27;;
5295;SDS011;2670;42.720;23.336;2023-04-01T11:26:12;7.33;;;3.20;;
5295;SDS011;2670;42.720;23.336;2023-04-01T11:29:06;10.57;;;3.67;;
5295;SDS011;2670;42.720;23.336;2023-04-01T11:31:54;13.93;;;6.33;;
5295;SDS011;2670;42.720;23.336;2023-04-01T11:37:29;15.80;;;7.00;;
5295;SDS011;2670;42.720;23.336;2023-04-01T11:40:06;17.63;;;6.23;;
5295;SDS011;2670;42.720;23.336;2023-04-01T11:42:42;5.13;;;3.20;;
5295;SDS011;2670;42.720;23.336;2023-04-01T11:45:23;24.77;;;4.63;;
5295;SDS011;2670;42.720;23.336;2023-04-01T11:54:14;8.70;;;2.50;;
5295;SDS011;2670;42.720;23.336;2023-04-01T11:56:58;7.80;;;3.97;;
5295;SDS011;2670;42.720;23.336;2023-04-01T11:59:47;5.77;;;2.70;;
5295;SDS011;2670;42.720;23.336;2023-04-01T12:02:28;7.23;;;2.87;;
5295;SDS011;2670;42.720;23.336;2023-04-01T12:05:03;6.33;;;2.93;;
5295;SDS011;2670;42.720;23.336;2023-04-01T12:07:56;8.70;;;3.33;;
5295;SDS011;2670;42.720;23.336;2023-04-01T12:10:32;6.43;;;3.03;;
5295;SDS011;2670;42.720;23.336;2023-04-01T12:13:07;15.30;;;3.93;;
5295;SDS011;2670;42.720;23.336;2023-04-01T12:15:52;9.70;;;4.43;;
5295;SDS011;2670;42.720;23.336;2023-04-01T12:18:27;18.43;;;7.50;;
5295;SDS011;2670;42.720;23.336;2023-04-01T12:21:07;10.60;;;5.00;;
5295;SDS011;2670;42.720;23.336;2023-04-01T12:23:51;12.33;;;5.87;;
5295;SDS011;2670;42.720;23.336;2023-04-01T12:26:41;9.70;;;5.23;;
5295;SDS011;2670;42.720;23.336;2023-04-01T12:29:18;17.20;;;9.93;;
5295;SDS011;2670;42.720;23.336;2023-04-01T12:31:58;16.90;;;8.73;;
5295;SDS011;2670;42.720;23.336;2023-04-01T12:37:49;14.73;;;5.80;;
5295;SDS011;2670;42.720;23.336;2023-04-01T12:40:30;17.77;;;7.30;;
5295;SDS011;2670;42.720;23.336;2023-04-01T12:43:12;8.53;;;5.03;;
5295;SDS011;2670;42.720;23.336;2023-04-01T12:45:55;7.30;;;4.00;;
5295;SDS011;2670;42.720;23.336;2023-04-01T12:48:43;12.27;;;4.53;;
5295;SDS011;2670;42.720;23.336;2023-04-01T12:57:51;27.87;;;7.50;;
5295;SDS011;2670;42.720;23.336;2023-04-01T13:00:56;12.73;;;5.30;;
5295;SDS011;2670;42.720;23.336;2023-04-01T13:03:43;16.40;;;5.40;;
5295;SDS011;2670;42.720;23.336;2023-04-01T13:06:36;8.63;;;3.87;;
5295;SDS011;2670;42.720;23.336;2023-04-01T13:09:22;6.93;;;3.27;;
5295;SDS011;2670;42.720;23.336;2023-04-01T13:12:08;9.27;;;3.83;;
5295;SDS011;2670;42.720;23.336;2023-04-01T13:18:02;11.07;;;5.80;;
5295;SDS011;2670;42.720;23.336;2023-04-01T13:20:41;11.40;;;6.00;;
5295;SDS011;2670;42.720;23.336;2023-04-01T13:23:28;13.33;;;7.57;;
5295;SDS011;2670;42.720;23.336;2023-04-01T13:26:10;14.07;;;5.20;;
5295;SDS011;2670;42.720;23.336;2023-04-01T13:28:46;9.37;;;4.10;;
5295;SDS011;2670;42.720;23.336;2023-04-01T13:31:32;10.77;;;5.97;;
5295;SDS011;2670;42.720;23.336;2023-04-01T13:34:08;12.70;;;6.17;;
5295;SDS011;2670;42.720;23.336;2023-04-01T13:36:47;15.20;;;7.07;;
5295;SDS011;2670;42.720;23.336;2023-04-01T13:39:36;17.57;;;7.60;;
5295;SDS011;2670;42.720;23.336;2023-04-01T13:42:16;9.70;;;5.20;;
5295;SDS011;2670;42.720;23.336;2023-04-01T13:44:48;10.20;;;5.57;;
5295;SDS011;2670;42.720;23.336;2023-04-01T13:47:23;14.50;;;6.03;;
5295;SDS011;2670;42.720;23.336;2023-04-01T13:53:08;15.70;;;6.20;;
5295;SDS011;2670;42.720;23.336;2023-04-01T13:55:54;14.60;;;6.80;;
5295;SDS011;2670;42.720;23.336;2023-04-01T13:58:33;10.70;;;5.90;;
5295;SDS011;2670;42.720;23.336;2023-04-01T14:01:09;8.70;;;5.40;;
5295;SDS011;2670;42.720;23.336;2023-04-01T14:06:54;11.33;;;4.63;;
5295;SDS011;2670;42.720;23.336;2023-04-01T14:09:36;13.87;;;6.20;;
5295;SDS011;2670;42.720;23.336;2023-04-01T14:12:27;5.73;;;3.60;;
5295;SDS011;2670;42.720;23.336;2023-04-01T14:15:05;7.93;;;3.90;;
5295;SDS011;2670;42.720;23.336;2023-04-01T14:17:52;8.73;;;4.00;;
5295;SDS011;2670;42.720;23.336;2023-04-01T14:20:38;6.97;;;4.67;;
5295;SDS011;2670;42.720;23.336;2023-04-01T14:23:24;8.47;;;5.00;;
5295;SDS011;2670;42.720;23.336;2023-04-01T14:28:55;8.00;;;5.03;;
5295;SDS011;2670;42.720;23.336;2023-04-01T14:31:38;10.37;;;5.07;;
5295;SDS011;2670;42.720;23.336;2023-04-01T14:34:22;8.50;;;3.30;;
5295;SDS011;2670;42.720;23.336;2023-04-01T14:37:02;9.67;;;3.40;;
5295;SDS011;2670;42.720;23.336;2023-04-01T14:39:51;8.40;;;4.87;;
5295;SDS011;2670;42.720;23.336;2023-04-01T14:45:46;5.97;;;3.27;;
5295;SDS011;2670;42.720;23.336;2023-04-01T14:48:35;4.73;;;2.83;;
5295;SDS011;2670;42.720;23.336;2023-04-01T14:51:08;6.47;;;3.90;;
5295;SDS011;2670;42.720;23.336;2023-04-01T14:53:41;4.93;;;3.27;;
5295;SDS011;2670;42.720;23.336;2023-04-01T14:56:13;6.20;;;3.70;;
5295;SDS011;2670;42.720;23.336;2023-04-01T14:59:08;4.83;;;3.00;;
5295;SDS011;2670;42.720;23.336;2023-04-01T15:01:41;10.77;;;7.30;;
5295;SDS011;2670;42.720;23.336;2023-04-01T15:04:19;13.67;;;5.93;;
5295;SDS011;2670;42.720;23.336;2023-04-01T15:07:11;13.10;;;4.03;;
5295;SDS011;2670;42.720;23.336;2023-04-01T15:09:53;7.17;;;4.30;;
5295;SDS011;2670;42.720;23.336;2023-04-01T15:12:27;4.33;;;2.87;;
5295;SDS011;2670;42.720;23.336;2023-04-01T15:15:16;4.90;;;2.97;;
5295;SDS011;2670;42.720;23.336;2023-04-01T15:17:55;11.57;;;3.20;;
5295;SDS011;2670;42.720;23.336;2023-04-01T15:20:36;6.03;;;3.27;;
5295;SDS011;2670;42.720;23.336;2023-04-01T15:23:29;9.03;;;2.73;;
5295;SDS011;2670;42.720;23.336;2023-04-01T15:26:11;5.03;;;2.70;;
5295;SDS011;2670;42.720;23.336;2023-04-01T15:28:45;6.60;;;4.03;;
5295;SDS011;2670;42.720;23.336;2023-04-01T15:31:21;4.83;;;3.03;;
5295;SDS011;2670;42.720;23.336;2023-04-01T15:34:07;13.00;;;4.57;;
5295;SDS011;2670;42.720;23.336;2023-04-01T15:36:46;11.17;;;5.27;;
5295;SDS011;2670;42.720;23.336;2023-04-01T15:39:24;11.93;;;5.20;;
5295;SDS011;2670;42.720;23.336;2023-04-01T15:42:11;8.27;;;4.80;;
5295;SDS011;2670;42.720;23.336;2023-04-01T15:44:52;22.10;;;10.87;;
5295;SDS011;2670;42.720;23.336;2023-04-01T15:47:31;12.20;;;6.10;;
5295;SDS011;2670;42.720;23.336;2023-04-01T15:50:23;17.93;;;10.93;;
5295;SDS011;2670;42.720;23.336;2023-04-01T15:53:09;5.53;;;2.00;;
5295;SDS011;2670;42.720;23.336;2023-04-01T15:55:45;3.00;;;2.10;;
5295;SDS011;2670;42.720;23.336;2023-04-01T15:58:29;2.73;;;2.10;;
5295;SDS011;2670;42.720;23.336;2023-04-01T16:01:13;3.50;;;2.27;;
5295;SDS011;2670;42.720;23.336;2023-04-01T16:03:51;3.83;;;2.33;;
5295;SDS011;2670;42.720;23.336;2023-04-01T16:06:30;6.47;;;2.30;;
5295;SDS011;2670;42.720;23.336;2023-04-01T16:12:00;6.73;;;3.60;;
5295;SDS011;2670;42.720;23.336;2023-04-01T16:14:35;14.87;;;6.00;;
5295;SDS011;2670;42.720;23.336;2023-04-01T16:17:14;14.77;;;7.60;;
5295;SDS011;2670;42.720;23.336;2023-04-01T16:19:53;4.23;;;3.03;;
5295;SDS011;2670;42.720;23.336;2023-04-01T16:22:27;4.50;;;2.90;;
5295;SDS011;2670;42.720;23.336;2023-04-01T16:25:05;5.70;;;4.00;;
5295;SDS011;2670;42.720;23.336;2023-04-01T16:27:46;16.97;;;9.10;;
5295;SDS011;2670;42.720;23.336;2023-04-01T16:30:24;7.77;;;4.90;;
5295;SDS011;2670;42.720;23.336;2023-04-01T16:33:01;7.20;;;4.00;;
5295;SDS011;2670;42.720;23.336;2023-04-01T16:35:34;10.10;;;7.90;;
5295;SDS011;2670;42.720;23.336;2023-04-01T16:38:09;5.37;;;4.47;;
5295;SDS011;2670;42.720;23.336;2023-04-01T16:40:46;6.67;;;4.10;;
5295;SDS011;2670;42.720;23.336;2023-04-01T16:43:21;8.27;;;4.40;;
5295;SDS011;2670;42.720;23.336;2023-04-01T16:45:57;5.33;;;3.67;;
5295;SDS011;2670;42.720;23.336;2023-04-01T16:48:45;4.60;;;2.90;;
5295;SDS011;2670;42.720;23.336;2023-04-01T16:51:21;4.87;;;2.83;;
5295;SDS011;2670;42.720;23.336;2023-04-01T16:53:50;2.97;;;2.10;;
5295;SDS011;2670;42.720;23.336;2023-04-01T16:56:36;6.50;;;3.60;;
5295;SDS011;2670;42.720;23.336;2023-04-01T16:59:07;14.40;;;8.40;;
5295;SDS011;2670;42.720;23.336;2023-04-01T17:01:47;4.50;;;3.90;;
5295;SDS011;2670;42.720;23.336;2023-04-01T17:04:20;11.93;;;7.57;;
5295;SDS011;2670;42.720;23.336;2023-04-01T17:06:56;10.90;;;6.20;;
5295;SDS011;2670;42.720;23.336;2023-04-01T17:09:39;7.40;;;4.67;;
5295;SDS011;2670;42.720;23.336;2023-04-01T17:12:22;7.97;;;4.13;;
5295;SDS011;2670;42.720;23.336;2023-04-01T17:14:59;4.43;;;3.20;;
5295;SDS011;2670;42.720;23.336;2023-04-01T17:17:34;11.57;;;5.60;;
5295;SDS011;2670;42.720;23.336;2023-04-01T17:20:12;5.10;;;3.73;;
5295;SDS011;2670;42.720;23.336;2023-04-01T17:22:51;2.87;;;2.67;;
5295;SDS011;2670;42.720;23.336;2023-04-01T17:25:36;3.90;;;2.67;;